createdAt,value
2023-03-20T00:02:24.286Z,4.21
2023-03-20T00:05:35.883Z,4.17
2023-03-20T00:08:34.901Z,4.14
2023-03-20T00:11:50.103Z,4.15
2023-03-20T00:14:49.521Z,4.11
2023-03-20T00:17:54.594Z,4.04
2023-03-20T00:20:54.399Z,4.15
2023-03-20T00:23:42.758Z,4.16
2023-03-20T00:26:52.042Z,4.12
2023-03-20T00:29:50.768Z,3.98
2023-03-20T00:32:57.678Z,3.99
2023-03-20T00:36:05.930Z,3.85
2023-03-20T00:39:12.651Z,3.82
2023-03-20T00:42:19.541Z,3.62
2023-03-20T00:45:23.166Z,3.46
2023-03-20T00:48:31.128Z,3.34
2023-03-20T00:51:37.879Z,3.37
2023-03-20T00:54:44.630Z,3.22
2023-03-20T00:57:54.795Z,3.12
2023-03-20T01:00:59.570Z,3.05
2023-03-20T01:04:05.896Z,3.01
2023-03-20T01:07:12.259Z,2.92
2023-03-20T01:10:18.944Z,2.79
2023-03-20T01:13:43.051Z,2.63
2023-03-20T01:16:48.395Z,2.56
2023-03-20T01:19:54.378Z,2.53
2023-03-20T01:22:53.963Z,2.36
2023-03-20T01:26:00.297Z,2.38
2023-03-20T01:29:00.012Z,2.29
2023-03-20T01:32:05.636Z,2.27
2023-03-20T01:35:11.511Z,2.25
2023-03-20T01:38:16.411Z,2.27
2023-03-20T01:41:28.758Z,2.22
2023-03-20T01:44:39.027Z,2.23
2023-03-20T01:47:45.621Z,2.22
2023-03-20T01:50:52.797Z,2.07
2023-03-20T01:54:02.959Z,2.05
2023-03-20T01:57:14.797Z,2.00
2023-03-20T02:00:24.413Z,1.92
2023-03-20T02:03:30.193Z,1.89
2023-03-20T02:06:50.922Z,1.86
2023-03-20T02:10:10.846Z,1.80
2023-03-20T02:13:23.499Z,1.79
2023-03-20T02:16:29.912Z,1.71
2023-03-20T02:20:50.588Z,1.73
2023-03-20T02:24:36.918Z,1.68
2023-03-20T02:27:57.493Z,1.63
2023-03-20T02:31:51.001Z,1.59
2023-03-20T02:35:19.031Z,1.57
2023-03-20T02:38:53.605Z,1.46
2023-03-20T02:42:04.940Z,1.47
2023-03-20T02:45:42.517Z,1.39
2023-03-20T02:49:12.420Z,1.40
2023-03-20T02:52:39.509Z,1.23
2023-03-20T02:56:07.046Z,1.18
2023-03-20T02:59:28.281Z,1.29
2023-03-20T03:02:56.403Z,1.32
2023-03-20T03:06:15.313Z,1.34
2023-03-20T03:09:32.892Z,1.45
2023-03-20T03:12:48.287Z,1.51
2023-03-20T03:15:56.395Z,1.48
2023-03-20T03:19:04.391Z,1.42
2023-03-20T03:22:04.507Z,1.46
2023-03-20T03:25:03.871Z,1.50
2023-03-20T03:28:45.791Z,1.61
2023-03-20T03:31:52.626Z,1.63
2023-03-20T03:34:51.375Z,1.63
2023-03-20T03:38:39.879Z,1.72
2023-03-20T03:41:56.294Z,1.77
2023-03-20T03:45:16.013Z,1.82
2023-03-20T03:48:34.575Z,1.95
2023-03-20T03:51:43.172Z,1.88
2023-03-20T03:55:18.780Z,1.98
2023-03-20T03:58:39.962Z,2.02
2023-03-20T04:01:45.383Z,2.04
2023-03-20T04:04:53.993Z,2.11
2023-03-20T04:07:56.351Z,2.15
2023-03-20T04:11:01.684Z,2.19
2023-03-20T04:14:09.536Z,2.18
2023-03-20T04:17:15.948Z,2.17
2023-03-20T04:20:23.421Z,2.18
2023-03-20T04:23:29.998Z,2.27
2023-03-20T04:26:36.529Z,2.36
2023-03-20T04:29:42.961Z,2.39
2023-03-20T04:32:50.346Z,2.46
2023-03-20T04:36:00.582Z,2.57
2023-03-20T04:39:00.628Z,2.63
2023-03-20T04:41:59.067Z,2.70
2023-03-20T04:45:05.560Z,2.69
2023-03-20T04:48:10.808Z,2.76
2023-03-20T04:51:17.583Z,2.81
2023-03-20T04:54:24.719Z,2.78
2023-03-20T04:57:30.218Z,2.81
2023-03-20T05:00:35.687Z,2.93
2023-03-20T05:03:42.216Z,2.94
2023-03-20T05:06:47.782Z,2.95
2023-03-20T05:09:55.632Z,2.93
2023-03-20T05:13:03.177Z,2.90
2023-03-20T05:16:12.765Z,2.90
2023-03-20T05:19:20.784Z,2.91
2023-03-20T05:22:29.172Z,2.94
2023-03-20T05:25:42.201Z,3.04
2023-03-20T05:29:01.313Z,3.17
2023-03-20T05:32:25.818Z,3.11
2023-03-20T05:35:35.996Z,3.07
2023-03-20T05:38:44.401Z,3.07
2023-03-20T05:42:01.916Z,3.11
2023-03-20T05:44:48.968Z,3.12
2023-03-20T05:47:44.338Z,3.12
2023-03-20T05:50:49.948Z,3.11
2023-03-20T05:54:00.553Z,3.11
2023-03-20T05:57:07.800Z,3.10
2023-03-20T06:00:31.837Z,3.07
2023-03-20T06:03:55.436Z,3.10
2023-03-20T06:07:02.632Z,3.17
2023-03-20T06:09:57.817Z,3.25
2023-03-20T06:13:04.294Z,3.22
2023-03-20T06:16:10.759Z,3.29
2023-03-20T06:19:16.749Z,3.32
2023-03-20T06:22:23.202Z,3.30
2023-03-20T06:25:29.559Z,3.35
2023-03-20T06:28:35.161Z,3.31
2023-03-20T06:31:40.882Z,3.33
2023-03-20T06:34:48.190Z,3.40
2023-03-20T06:37:54.264Z,3.48
2023-03-20T06:40:59.724Z,3.50
2023-03-20T06:44:06.231Z,3.60
2023-03-20T06:47:14.580Z,3.61
2023-03-20T06:50:21.040Z,3.66
2023-03-20T06:53:27.192Z,3.67
2023-03-20T06:56:35.052Z,3.54
2023-03-20T06:59:39.817Z,3.55
2023-03-20T07:02:45.447Z,3.59
2023-03-20T07:05:53.270Z,3.50
2023-03-20T07:08:59.298Z,3.54
2023-03-20T07:12:05.178Z,3.66
2023-03-20T07:15:10.468Z,3.64
2023-03-20T07:18:17.237Z,3.68
2023-03-20T07:21:16.157Z,3.67
2023-03-20T07:24:23.268Z,3.69
2023-03-20T07:27:28.954Z,3.68
2023-03-20T07:30:35.145Z,3.74
2023-03-20T07:33:41.239Z,3.87
2023-03-20T07:36:49.015Z,3.91
2023-03-20T07:39:55.393Z,3.97
2023-03-20T07:43:07.943Z,4.07
2023-03-20T07:46:22.750Z,4.18
2023-03-20T07:49:31.061Z,4.26
2023-03-20T07:52:39.807Z,4.35
2023-03-20T07:55:44.763Z,4.38
2023-03-20T07:58:51.684Z,4.51
2023-03-20T08:01:57.065Z,4.54
2023-03-20T08:05:03.526Z,4.59
2023-03-20T08:08:02.958Z,4.67
2023-03-20T08:11:07.986Z,4.69
2023-03-20T08:14:13.468Z,4.77
2023-03-20T08:17:21.189Z,4.74
2023-03-20T08:20:27.066Z,4.85
2023-03-20T08:23:32.092Z,4.84
2023-03-20T08:26:37.988Z,4.87
2023-03-20T08:29:43.366Z,5.03
2023-03-20T08:32:49.426Z,5.11
2023-03-20T08:35:56.130Z,5.17
2023-03-20T08:39:03.694Z,5.26
2023-03-20T08:42:10.338Z,5.31
2023-03-20T08:45:17.799Z,5.43
2023-03-20T08:48:23.590Z,5.44
2023-03-20T08:51:29.742Z,5.57
2023-03-20T08:54:35.401Z,5.49
2023-03-20T08:57:42.979Z,5.70
2023-03-20T09:00:48.719Z,5.76
2023-03-20T09:03:54.261Z,5.73
2023-03-20T09:07:00.031Z,5.87
2023-03-20T09:10:05.505Z,5.85
2023-03-20T09:13:27.977Z,5.87
2023-03-20T09:16:15.004Z,5.93
2023-03-20T09:19:21.201Z,6.05
2023-03-20T09:22:30.217Z,5.94
2023-03-20T09:25:35.225Z,6.14
2023-03-20T09:28:42.399Z,6.23
2023-03-20T09:31:47.171Z,6.19
2023-03-20T09:34:52.968Z,6.19
2023-03-20T09:37:59.067Z,6.09
2023-03-20T09:41:16.719Z,6.04
2023-03-20T09:44:55.453Z,6.26
2023-03-20T09:48:27.644Z,6.49
2023-03-20T09:51:56.937Z,6.63
2023-03-20T09:55:05.300Z,6.71
2023-03-20T09:58:14.875Z,6.88
2023-03-20T10:01:21.569Z,6.97
2023-03-20T10:04:27.990Z,6.89
2023-03-20T10:07:33.941Z,6.85
2023-03-20T10:10:50.763Z,6.87
2023-03-20T10:14:04.088Z,6.85
2023-03-20T10:17:36.670Z,6.83
2023-03-20T10:20:50.882Z,6.74
2023-03-20T10:24:21.255Z,6.77
2023-03-20T10:27:49.821Z,6.76
2023-03-20T10:31:07.542Z,6.80
2023-03-20T10:34:28.156Z,6.78
2023-03-20T10:37:31.071Z,6.88
2023-03-20T10:40:35.562Z,6.82
2023-03-20T10:43:43.286Z,6.71
2023-03-20T10:46:57.077Z,6.79
2023-03-20T10:50:11.901Z,6.82
2023-03-20T10:53:17.693Z,6.82
2023-03-20T10:56:28.482Z,7.02
2023-03-20T10:59:41.785Z,7.06
2023-03-20T11:02:46.373Z,7.12
2023-03-20T11:06:08.490Z,7.13
2023-03-20T11:09:00.133Z,7.12
2023-03-20T11:12:02.445Z,7.06
2023-03-20T11:15:11.599Z,7.09
2023-03-20T11:18:21.534Z,7.05
2023-03-20T11:21:42.322Z,7.12
2023-03-20T11:24:51.913Z,7.23
2023-03-20T11:27:57.151Z,7.27
2023-03-20T11:31:05.225Z,7.40
2023-03-20T11:34:26.370Z,7.52
2023-03-20T11:37:46.411Z,7.65
2023-03-20T11:40:55.119Z,7.85
2023-03-20T11:44:01.093Z,7.96
2023-03-20T11:47:29.390Z,8.01
2023-03-20T11:50:47.550Z,7.79
2023-03-20T11:54:07.789Z,7.88
2023-03-20T11:57:13.991Z,8.05
2023-03-20T12:00:39.788Z,8.05
2023-03-20T12:03:54.153Z,8.04
2023-03-20T12:07:13.592Z,8.00
2023-03-20T12:10:22.137Z,8.07
2023-03-20T12:13:35.302Z,8.15
2023-03-20T12:16:44.393Z,8.14
2023-03-20T12:19:50.552Z,8.23
2023-03-20T12:23:30.336Z,8.14
2023-03-20T12:26:52.820Z,8.08
2023-03-20T12:30:06.656Z,7.92
2023-03-20T12:33:18.650Z,7.86
2023-03-20T12:36:32.630Z,7.78
2023-03-20T12:39:41.572Z,7.80
2023-03-20T12:43:10.518Z,7.80
2023-03-20T12:46:40.911Z,7.82
2023-03-20T12:50:06.116Z,7.84
2023-03-20T12:53:59.276Z,7.78
2023-03-20T12:57:20.091Z,7.71
2023-03-20T13:00:44.798Z,7.64
2023-03-20T13:04:07.907Z,7.63
2023-03-20T13:07:19.028Z,7.53
2023-03-20T13:10:22.819Z,7.46
2023-03-20T13:13:54.742Z,7.40
2023-03-20T13:17:21.944Z,7.47
2023-03-20T13:20:41.013Z,7.47
2023-03-20T13:24:06.346Z,7.45
2023-03-20T13:27:23.521Z,7.46
2023-03-20T13:30:50.002Z,7.50
2023-03-20T13:34:15.206Z,7.60
2023-03-20T13:37:28.980Z,7.75
2023-03-20T13:40:40.860Z,7.74
2023-03-20T13:44:07.861Z,7.76
2023-03-20T13:47:20.549Z,7.81
2023-03-20T13:51:01.566Z,7.80
2023-03-20T13:54:42.917Z,7.75
2023-03-20T13:58:19.327Z,7.72
2023-03-20T14:01:31.839Z,7.68
2023-03-20T14:04:31.412Z,7.69
2023-03-20T14:07:51.893Z,7.75
2023-03-20T14:10:58.393Z,7.62
2023-03-20T14:14:06.025Z,7.45
2023-03-20T14:17:21.844Z,7.38
2023-03-20T14:20:35.433Z,7.31
2023-03-20T14:23:54.202Z,7.19
2023-03-20T14:27:04.461Z,7.13
2023-03-20T14:30:10.132Z,7.06
2023-03-20T14:33:24.166Z,7.00
2023-03-20T14:36:36.301Z,7.04
2023-03-20T14:39:50.461Z,7.09
2023-03-20T14:43:13.699Z,6.97
2023-03-20T14:46:48.497Z,6.93
2023-03-20T14:50:08.764Z,6.90
2023-03-20T14:53:34.841Z,6.89
2023-03-20T14:56:45.899Z,6.93
2023-03-20T14:59:52.040Z,6.88
2023-03-20T15:02:58.819Z,6.83
2023-03-20T15:06:05.339Z,6.74
2023-03-20T15:09:20.338Z,6.73
2023-03-20T15:12:28.978Z,6.70
2023-03-20T15:15:40.451Z,6.67
2023-03-20T15:18:48.530Z,6.66
2023-03-20T15:21:55.609Z,6.59
2023-03-20T15:25:11.834Z,6.48
2023-03-20T15:28:21.133Z,6.42
2023-03-20T15:32:02.900Z,6.41
2023-03-20T15:34:56.787Z,6.33
2023-03-20T15:38:03.748Z,6.26
2023-03-20T15:41:09.321Z,6.28
2023-03-20T15:44:37.010Z,6.19
2023-03-20T15:47:43.394Z,6.06
2023-03-20T15:50:53.530Z,6.03
2023-03-20T15:54:01.695Z,5.94
2023-03-20T15:57:10.640Z,5.81
2023-03-20T16:00:15.657Z,5.72
2023-03-20T16:03:25.546Z,5.57
2023-03-20T16:06:34.440Z,5.50
2023-03-20T16:09:40.472Z,5.34
2023-03-20T16:12:46.882Z,5.26
2023-03-20T16:15:53.126Z,5.25
2023-03-20T16:18:59.874Z,5.06
2023-03-20T16:22:12.538Z,5.00
2023-03-20T16:25:18.254Z,4.94
2023-03-20T16:28:25.866Z,4.76
2023-03-20T16:31:49.929Z,4.65
2023-03-20T16:34:55.462Z,4.54
2023-03-20T16:38:14.987Z,4.47
2023-03-20T16:41:33.128Z,4.43
2023-03-20T16:44:43.658Z,4.21
2023-03-20T16:47:52.750Z,4.14
2023-03-20T16:51:01.385Z,4.22
2023-03-20T16:54:02.800Z,4.15
2023-03-20T16:57:10.433Z,4.18
2023-03-20T17:00:22.161Z,4.22
2023-03-20T17:03:34.272Z,4.12
2023-03-20T17:06:51.695Z,4.03
2023-03-20T17:10:27.139Z,4.12
2023-03-20T17:13:31.846Z,4.13
2023-03-20T17:16:37.108Z,3.98
2023-03-20T17:19:43.259Z,3.95
2023-03-20T17:22:49.767Z,3.68
2023-03-20T17:25:56.526Z,3.60
2023-03-20T17:29:03.213Z,3.55
2023-03-20T17:32:08.658Z,3.47
2023-03-20T17:35:13.959Z,3.45
2023-03-20T17:38:20.516Z,3.45
2023-03-20T17:41:31.400Z,3.54
2023-03-20T17:44:36.879Z,3.40
2023-03-20T17:47:42.742Z,3.33
2023-03-20T17:50:49.262Z,3.34
2023-03-20T17:53:50.403Z,3.26
2023-03-20T17:56:56.587Z,3.14
2023-03-20T18:00:02.053Z,3.18
2023-03-20T18:03:09.127Z,3.12
2023-03-20T18:06:14.729Z,2.95
2023-03-20T18:09:12.844Z,2.95
2023-03-20T18:12:00.471Z,3.04
2023-03-20T18:14:54.893Z,3.18
2023-03-20T18:17:55.664Z,2.86
2023-03-20T18:21:04.495Z,2.86
2023-03-20T18:24:09.153Z,2.86
2023-03-20T18:27:15.669Z,2.72
2023-03-20T18:30:29.562Z,2.74
2023-03-20T18:33:35.453Z,2.84
2023-03-20T18:36:41.310Z,2.80
2023-03-20T18:39:48.480Z,2.75
2023-03-20T18:42:54.139Z,2.72
2023-03-20T18:45:59.516Z,2.62
2023-03-20T18:49:06.123Z,2.62
2023-03-20T18:52:13.222Z,2.58
2023-03-20T18:55:19.617Z,2.62
2023-03-20T18:58:38.043Z,2.59
2023-03-20T19:01:44.690Z,2.56
2023-03-20T19:04:49.298Z,2.52
2023-03-20T19:07:57.231Z,2.40
2023-03-20T19:11:02.845Z,2.35
2023-03-20T19:14:09.278Z,2.32
2023-03-20T19:17:15.227Z,2.33
2023-03-20T19:20:23.221Z,2.29
2023-03-20T19:23:30.206Z,2.30
2023-03-20T19:26:35.998Z,2.32
2023-03-20T19:29:41.510Z,2.26
2023-03-20T19:32:49.800Z,2.21
2023-03-20T19:36:02.703Z,2.12
2023-03-20T19:39:02.759Z,2.02
2023-03-20T19:42:34.220Z,2.00
2023-03-20T19:45:15.928Z,2.10
2023-03-20T19:48:50.095Z,2.07
2023-03-20T19:51:41.842Z,2.02
2023-03-20T19:55:01.868Z,2.13
2023-03-20T19:57:58.056Z,2.23
2023-03-20T20:01:13.995Z,2.14
2023-03-20T20:04:11.674Z,2.13
2023-03-20T20:07:56.188Z,2.11
2023-03-20T20:10:27.976Z,2.05
2023-03-20T20:13:47.109Z,2.00
2023-03-20T20:16:44.571Z,2.04
2023-03-20T20:19:50.298Z,2.04
2023-03-20T20:22:55.990Z,2.06
2023-03-20T20:26:01.955Z,2.04
2023-03-20T20:29:09.369Z,1.87
2023-03-20T20:32:15.923Z,1.85
2023-03-20T20:35:44.008Z,1.87
2023-03-20T20:38:49.305Z,1.90
2023-03-20T20:41:38.993Z,1.92
2023-03-20T20:44:44.964Z,1.92
2023-03-20T20:47:51.510Z,1.96
2023-03-20T20:50:57.968Z,1.99
2023-03-20T20:54:04.482Z,1.89
2023-03-20T20:57:09.947Z,1.91
2023-03-20T21:00:15.771Z,1.95
2023-03-20T21:03:21.036Z,1.90
2023-03-20T21:06:44.303Z,1.93
2023-03-20T21:09:32.552Z,1.88
2023-03-20T21:12:52.030Z,1.92
2023-03-20T21:15:45.918Z,1.92
2023-03-20T21:18:52.137Z,1.95
2023-03-20T21:21:58.153Z,1.96
2023-03-20T21:25:14.350Z,1.98
2023-03-20T21:28:07.274Z,1.90
2023-03-20T21:34:10.665Z,1.82
2023-03-20T21:38:15.779Z,1.75
2023-03-20T21:40:25.076Z,1.76
2023-03-20T21:43:31.702Z,1.77
2023-03-20T21:50:31.166Z,1.66
2023-03-20T21:53:46.313Z,1.66
2023-03-20T21:59:47.336Z,1.63
2023-03-20T22:02:23.795Z,1.75
2023-03-20T22:09:45.235Z,1.67
2023-03-20T22:18:42.250Z,1.49
2023-03-20T22:24:59.403Z,1.41
2023-03-20T22:28:02.676Z,1.42
2023-03-20T22:37:43.785Z,1.34
2023-03-20T22:44:04.784Z,1.11
2023-03-20T22:46:39.998Z,1.09
2023-03-20T22:49:19.835Z,1.05
2023-03-20T22:52:37.872Z,0.99
2023-03-20T22:55:31.647Z,1.07
2023-03-20T22:58:37.701Z,1.02
2023-03-20T23:01:44.266Z,1.01
2023-03-20T23:04:49.772Z,1.09
2023-03-20T23:07:57.167Z,1.11
2023-03-20T23:11:05.395Z,1.11
2023-03-20T23:14:20.562Z,1.08
2023-03-20T23:17:18.778Z,0.99
2023-03-20T23:20:26.282Z,1.00
2023-03-20T23:23:32.276Z,0.91
2023-03-20T23:26:37.897Z,0.84
2023-03-20T23:29:44.934Z,0.88
2023-03-20T23:32:53.769Z,0.94
2023-03-20T23:36:14.053Z,0.95
2023-03-20T23:39:07.215Z,0.93
2023-03-20T23:42:29.228Z,0.84
2023-03-20T23:45:21.379Z,0.69
2023-03-20T23:48:27.308Z,0.59
2023-03-20T23:51:32.873Z,0.55
2023-03-20T23:54:39.343Z,0.50
2023-03-20T23:57:44.796Z,0.48
